sensor_id;sensor_type;location;lat;lon;timestamp;P1;durP1;ratioP1;P2;durP2;ratioP2
61397;SDS011;47267;48.130;-2.040;2022-12-18T00:01:23;9.18;;;6.70;;
61397;SDS011;47267;48.130;-2.040;2022-12-18T00:03:49;10.05;;;7.25;;
61397;SDS011;47267;48.130;-2.040;2022-12-18T00:06:15;8.18;;;6.70;;
61397;SDS011;47267;48.130;-2.040;2022-12-18T00:08:42;9.98;;;7.32;;
61397;SDS011;47267;48.130;-2.040;2022-12-18T00:11:10;9.82;;;6.38;;
61397;SDS011;47267;48.130;-2.040;2022-12-18T00:13:36;9.30;;;6.55;;
61397;SDS011;47267;48.130;-2.040;2022-12-18T00:16:03;9.23;;;6.82;;
61397;SDS011;47267;48.130;-2.040;2022-12-18T00:18:29;8.32;;;6.47;;
61397;SDS011;47267;48.130;-2.040;2022-12-18T00:20:58;8.93;;;6.95;;
61397;SDS011;47267;48.130;-2.040;2022-12-18T00:23:25;9.50;;;7.30;;
61397;SDS011;47267;48.130;-2.040;2022-12-18T00:25:51;9.60;;;6.60;;
61397;SDS011;47267;48.130;-2.040;2022-12-18T00:28:17;8.95;;;6.55;;
61397;SDS011;47267;48.130;-2.040;2022-12-18T00:30:43;8.20;;;6.28;;
61397;SDS011;47267;48.130;-2.040;2022-12-18T00:33:09;8.57;;;6.45;;
61397;SDS011;47267;48.130;-2.040;2022-12-18T00:35:35;8.95;;;6.18;;
61397;SDS011;47267;48.130;-2.040;2022-12-18T00:38:01;8.40;;;6.35;;
61397;SDS011;47267;48.130;-2.040;2022-12-18T00:40:27;8.85;;;6.45;;
61397;SDS011;47267;48.130;-2.040;2022-12-18T00:42:53;9.48;;;6.53;;
61397;SDS011;47267;48.130;-2.040;2022-12-18T00:45:26;8.07;;;6.03;;
61397;SDS011;47267;48.130;-2.040;2022-12-18T00:47:53;8.68;;;6.22;;
61397;SDS011;47267;48.130;-2.040;2022-12-18T00:50:19;8.18;;;6.25;;
61397;SDS011;47267;48.130;-2.040;2022-12-18T00:52:45;8.65;;;6.30;;
61397;SDS011;47267;48.130;-2.040;2022-12-18T00:55:11;8.13;;;5.93;;
61397;SDS011;47267;48.130;-2.040;2022-12-18T00:57:38;8.25;;;5.57;;
61397;SDS011;47267;48.130;-2.040;2022-12-18T01:00:04;7.72;;;5.85;;
61397;SDS011;47267;48.130;-2.040;2022-12-18T01:02:30;7.38;;;5.45;;
61397;SDS011;47267;48.130;-2.040;2022-12-18T01:04:57;6.45;;;5.00;;
61397;SDS011;47267;48.130;-2.040;2022-12-18T01:07:23;7.82;;;6.15;;
61397;SDS011;47267;48.130;-2.040;2022-12-18T01:09:49;8.20;;;5.88;;
61397;SDS011;47267;48.130;-2.040;2022-12-18T01:12:15;8.20;;;6.15;;
61397;SDS011;47267;48.130;-2.040;2022-12-18T01:14:41;7.28;;;5.95;;
61397;SDS011;47267;48.130;-2.040;2022-12-18T01:17:07;7.75;;;5.60;;
61397;SDS011;47267;48.130;-2.040;2022-12-18T01:19:33;7.38;;;5.55;;
61397;SDS011;47267;48.130;-2.040;2022-12-18T01:21:59;6.28;;;4.72;;
61397;SDS011;47267;48.130;-2.040;2022-12-18T01:24:25;7.57;;;5.20;;
61397;SDS011;47267;48.130;-2.040;2022-12-18T01:26:51;7.63;;;5.72;;
61397;SDS011;47267;48.130;-2.040;2022-12-18T01:29:17;6.70;;;5.38;;
61397;SDS011;47267;48.130;-2.040;2022-12-18T01:31:43;7.18;;;5.47;;
61397;SDS011;47267;48.130;-2.040;2022-12-18T01:34:10;6.72;;;4.93;;
61397;SDS011;47267;48.130;-2.040;2022-12-18T01:36:36;6.15;;;4.88;;
61397;SDS011;47267;48.130;-2.040;2022-12-18T01:39:05;7.93;;;5.40;;
61397;SDS011;47267;48.130;-2.040;2022-12-18T01:41:32;6.25;;;5.32;;
61397;SDS011;47267;48.130;-2.040;2022-12-18T01:44:53;6.15;;;4.90;;
61397;SDS011;47267;48.130;-2.040;2022-12-18T01:47:09;6.32;;;5.40;;
61397;SDS011;47267;48.130;-2.040;2022-12-18T01:49:39;8.15;;;4.95;;
61397;SDS011;47267;48.130;-2.040;2022-12-18T01:52:06;6.15;;;4.90;;
61397;SDS011;47267;48.130;-2.040;2022-12-18T01:54:32;7.57;;;5.40;;
61397;SDS011;47267;48.130;-2.040;2022-12-18T01:56:59;8.07;;;5.35;;
61397;SDS011;47267;48.130;-2.040;2022-12-18T01:59:26;7.00;;;5.18;;
61397;SDS011;47267;48.130;-2.040;2022-12-18T02:01:53;7.07;;;4.82;;
61397;SDS011;47267;48.130;-2.040;2022-12-18T02:04:22;7.80;;;4.95;;
61397;SDS011;47267;48.130;-2.040;2022-12-18T02:06:56;6.70;;;5.40;;
61397;SDS011;47267;48.130;-2.040;2022-12-18T02:09:29;5.80;;;4.55;;
61397;SDS011;47267;48.130;-2.040;2022-12-18T02:14:25;6.65;;;5.22;;
61397;SDS011;47267;48.130;-2.040;2022-12-18T02:16:56;5.88;;;4.68;;
61397;SDS011;47267;48.130;-2.040;2022-12-18T02:19:28;6.38;;;4.70;;
61397;SDS011;47267;48.130;-2.040;2022-12-18T02:27:10;6.28;;;4.75;;
61397;SDS011;47267;48.130;-2.040;2022-12-18T02:29:41;5.80;;;4.60;;
61397;SDS011;47267;48.130;-2.040;2022-12-18T02:32:10;5.85;;;4.60;;
61397;SDS011;47267;48.130;-2.040;2022-12-18T02:34:38;6.05;;;4.60;;
61397;SDS011;47267;48.130;-2.040;2022-12-18T02:37:14;5.60;;;4.60;;
61397;SDS011;47267;48.130;-2.040;2022-12-18T02:39:41;6.47;;;4.80;;
61397;SDS011;47267;48.130;-2.040;2022-12-18T02:42:08;6.43;;;4.80;;
61397;SDS011;47267;48.130;-2.040;2022-12-18T02:44:35;6.25;;;4.80;;
61397;SDS011;47267;48.130;-2.040;2022-12-18T02:47:08;5.90;;;4.85;;
61397;SDS011;47267;48.130;-2.040;2022-12-18T02:52:37;5.97;;;4.78;;
61397;SDS011;47267;48.130;-2.040;2022-12-18T03:00:10;6.95;;;4.85;;
61397;SDS011;47267;48.130;-2.040;2022-12-18T03:02:47;7.00;;;4.80;;
61397;SDS011;47267;48.130;-2.040;2022-12-18T03:05:16;6.78;;;4.57;;
61397;SDS011;47267;48.130;-2.040;2022-12-18T03:10:16;6.95;;;4.95;;
61397;SDS011;47267;48.130;-2.040;2022-12-18T03:12:46;6.38;;;4.65;;
61397;SDS011;47267;48.130;-2.040;2022-12-18T03:15:21;6.05;;;4.15;;
61397;SDS011;47267;48.130;-2.040;2022-12-18T03:17:52;7.43;;;4.82;;
61397;SDS011;47267;48.130;-2.040;2022-12-18T03:20:21;6.60;;;5.00;;
61397;SDS011;47267;48.130;-2.040;2022-12-18T03:22:50;6.85;;;4.50;;
61397;SDS011;47267;48.130;-2.040;2022-12-18T03:25:16;6.68;;;4.47;;
61397;SDS011;47267;48.130;-2.040;2022-12-18T03:27:45;6.05;;;4.35;;
61397;SDS011;47267;48.130;-2.040;2022-12-18T03:30:13;7.90;;;4.85;;
61397;SDS011;47267;48.130;-2.040;2022-12-18T03:35:08;6.70;;;4.70;;
61397;SDS011;47267;48.130;-2.040;2022-12-18T03:37:37;6.72;;;4.63;;
61397;SDS011;47267;48.130;-2.040;2022-12-18T03:40:03;5.55;;;4.40;;
61397;SDS011;47267;48.130;-2.040;2022-12-18T03:42:32;6.05;;;4.35;;
61397;SDS011;47267;48.130;-2.040;2022-12-18T03:45:14;6.17;;;4.20;;
61397;SDS011;47267;48.130;-2.040;2022-12-18T03:48:01;4.90;;;4.07;;
61397;SDS011;47267;48.130;-2.040;2022-12-18T03:50:44;6.80;;;5.00;;
61397;SDS011;47267;48.130;-2.040;2022-12-18T03:55:55;5.50;;;4.10;;
61397;SDS011;47267;48.130;-2.040;2022-12-18T03:58:25;7.15;;;4.30;;
61397;SDS011;47267;48.130;-2.040;2022-12-18T04:00:53;5.37;;;4.00;;
61397;SDS011;47267;48.130;-2.040;2022-12-18T04:03:21;6.28;;;4.20;;
61397;SDS011;47267;48.130;-2.040;2022-12-18T04:05:48;6.28;;;4.70;;
61397;SDS011;47267;48.130;-2.040;2022-12-18T04:08:16;5.75;;;3.80;;
61397;SDS011;47267;48.130;-2.040;2022-12-18T04:10:42;5.32;;;4.00;;
61397;SDS011;47267;48.130;-2.040;2022-12-18T04:13:08;5.80;;;3.95;;
61397;SDS011;47267;48.130;-2.040;2022-12-18T04:15:34;6.45;;;4.30;;
61397;SDS011;47267;48.130;-2.040;2022-12-18T04:18:01;6.32;;;4.00;;
61397;SDS011;47267;48.130;-2.040;2022-12-18T04:20:27;6.40;;;4.93;;
61397;SDS011;47267;48.130;-2.040;2022-12-18T04:22:53;5.95;;;4.07;;
61397;SDS011;47267;48.130;-2.040;2022-12-18T04:25:19;6.30;;;4.30;;
61397;SDS011;47267;48.130;-2.040;2022-12-18T04:27:45;7.07;;;4.30;;
61397;SDS011;47267;48.130;-2.040;2022-12-18T04:30:11;6.30;;;4.22;;
61397;SDS011;47267;48.130;-2.040;2022-12-18T04:32:37;5.32;;;4.10;;
61397;SDS011;47267;48.130;-2.040;2022-12-18T04:35:03;6.80;;;4.47;;
61397;SDS011;47267;48.130;-2.040;2022-12-18T04:37:31;6.13;;;4.20;;
61397;SDS011;47267;48.130;-2.040;2022-12-18T04:39:57;6.30;;;3.95;;
61397;SDS011;47267;48.130;-2.040;2022-12-18T04:42:23;4.72;;;3.92;;
61397;SDS011;47267;48.130;-2.040;2022-12-18T04:44:49;5.82;;;3.88;;
61397;SDS011;47267;48.130;-2.040;2022-12-18T04:47:15;5.13;;;3.83;;
61397;SDS011;47267;48.130;-2.040;2022-12-18T04:49:41;5.30;;;4.10;;
61397;SDS011;47267;48.130;-2.040;2022-12-18T04:52:07;6.60;;;4.00;;
61397;SDS011;47267;48.130;-2.040;2022-12-18T04:54:34;5.47;;;3.83;;
61397;SDS011;47267;48.130;-2.040;2022-12-18T04:57:00;5.00;;;3.78;;
61397;SDS011;47267;48.130;-2.040;2022-12-18T04:59:26;5.65;;;3.80;;
61397;SDS011;47267;48.130;-2.040;2022-12-18T05:01:52;5.85;;;3.90;;
61397;SDS011;47267;48.130;-2.040;2022-12-18T05:04:18;5.15;;;3.72;;
61397;SDS011;47267;48.130;-2.040;2022-12-18T05:06:44;5.13;;;4.10;;
61397;SDS011;47267;48.130;-2.040;2022-12-18T05:09:10;4.78;;;3.50;;
61397;SDS011;47267;48.130;-2.040;2022-12-18T05:11:36;6.15;;;4.10;;
61397;SDS011;47267;48.130;-2.040;2022-12-18T05:14:02;6.63;;;3.55;;
61397;SDS011;47267;48.130;-2.040;2022-12-18T05:16:28;6.07;;;3.90;;
61397;SDS011;47267;48.130;-2.040;2022-12-18T05:18:54;4.88;;;3.88;;
61397;SDS011;47267;48.130;-2.040;2022-12-18T05:21:20;5.93;;;4.18;;
61397;SDS011;47267;48.130;-2.040;2022-12-18T05:23:46;5.38;;;3.95;;
61397;SDS011;47267;48.130;-2.040;2022-12-18T05:26:15;4.32;;;3.47;;
61397;SDS011;47267;48.130;-2.040;2022-12-18T05:28:42;5.60;;;3.90;;
61397;SDS011;47267;48.130;-2.040;2022-12-18T05:31:08;4.78;;;3.40;;
61397;SDS011;47267;48.130;-2.040;2022-12-18T05:33:35;6.13;;;4.32;;
61397;SDS011;47267;48.130;-2.040;2022-12-18T05:36:01;5.57;;;3.85;;
61397;SDS011;47267;48.130;-2.040;2022-12-18T05:38:28;4.53;;;3.65;;
61397;SDS011;47267;48.130;-2.040;2022-12-18T05:40:54;7.05;;;4.20;;
61397;SDS011;47267;48.130;-2.040;2022-12-18T05:43:21;6.65;;;4.10;;
61397;SDS011;47267;48.130;-2.040;2022-12-18T05:45:47;5.00;;;3.40;;
61397;SDS011;47267;48.130;-2.040;2022-12-18T05:48:14;5.50;;;3.50;;
61397;SDS011;47267;48.130;-2.040;2022-12-18T05:50:41;5.10;;;3.58;;
61397;SDS011;47267;48.130;-2.040;2022-12-18T05:53:08;5.28;;;3.47;;
61397;SDS011;47267;48.130;-2.040;2022-12-18T05:55:34;5.18;;;4.15;;
61397;SDS011;47267;48.130;-2.040;2022-12-18T05:58:01;5.03;;;3.97;;
61397;SDS011;47267;48.130;-2.040;2022-12-18T06:00:27;5.38;;;3.30;;
61397;SDS011;47267;48.130;-2.040;2022-12-18T06:02:53;4.43;;;3.38;;
61397;SDS011;47267;48.130;-2.040;2022-12-18T06:05:19;5.28;;;3.58;;
61397;SDS011;47267;48.130;-2.040;2022-12-18T06:07:45;5.15;;;3.83;;
61397;SDS011;47267;48.130;-2.040;2022-12-18T06:10:11;5.43;;;4.05;;
61397;SDS011;47267;48.130;-2.040;2022-12-18T06:12:37;5.93;;;4.22;;
61397;SDS011;47267;48.130;-2.040;2022-12-18T06:15:04;6.97;;;3.90;;
61397;SDS011;47267;48.130;-2.040;2022-12-18T06:17:30;4.10;;;3.58;;
61397;SDS011;47267;48.130;-2.040;2022-12-18T06:19:57;4.97;;;3.78;;
61397;SDS011;47267;48.130;-2.040;2022-12-18T06:22:23;4.18;;;3.50;;
61397;SDS011;47267;48.130;-2.040;2022-12-18T06:24:49;4.75;;;3.78;;
61397;SDS011;47267;48.130;-2.040;2022-12-18T06:27:16;4.53;;;3.63;;
61397;SDS011;47267;48.130;-2.040;2022-12-18T06:29:42;5.55;;;3.70;;
61397;SDS011;47267;48.130;-2.040;2022-12-18T06:32:08;4.90;;;3.85;;
61397;SDS011;47267;48.130;-2.040;2022-12-18T06:34:36;4.20;;;3.58;;
61397;SDS011;47267;48.130;-2.040;2022-12-18T06:37:02;4.50;;;3.47;;
61397;SDS011;47267;48.130;-2.040;2022-12-18T06:39:28;4.65;;;3.30;;
61397;SDS011;47267;48.130;-2.040;2022-12-18T06:41:54;5.25;;;4.28;;
61397;SDS011;47267;48.130;-2.040;2022-12-18T06:44:20;4.90;;;3.65;;
61397;SDS011;47267;48.130;-2.040;2022-12-18T06:46:47;4.45;;;3.47;;
61397;SDS011;47267;48.130;-2.040;2022-12-18T06:49:13;4.30;;;3.35;;
61397;SDS011;47267;48.130;-2.040;2022-12-18T06:51:40;4.50;;;3.10;;
61397;SDS011;47267;48.130;-2.040;2022-12-18T06:54:07;4.05;;;3.42;;
61397;SDS011;47267;48.130;-2.040;2022-12-18T06:56:33;5.80;;;3.75;;
61397;SDS011;47267;48.130;-2.040;2022-12-18T06:58:59;5.43;;;3.40;;
61397;SDS011;47267;48.130;-2.040;2022-12-18T07:01:25;5.00;;;3.40;;
61397;SDS011;47267;48.130;-2.040;2022-12-18T07:03:55;6.38;;;3.95;;
61397;SDS011;47267;48.130;-2.040;2022-12-18T07:06:21;4.07;;;3.42;;
61397;SDS011;47267;48.130;-2.040;2022-12-18T07:08:48;5.13;;;3.63;;
61397;SDS011;47267;48.130;-2.040;2022-12-18T07:11:16;5.40;;;3.30;;
61397;SDS011;47267;48.130;-2.040;2022-12-18T07:13:42;4.13;;;3.22;;
61397;SDS011;47267;48.130;-2.040;2022-12-18T07:16:10;4.72;;;3.58;;
61397;SDS011;47267;48.130;-2.040;2022-12-18T07:18:36;6.20;;;4.13;;
61397;SDS011;47267;48.130;-2.040;2022-12-18T07:21:06;4.85;;;3.47;;
61397;SDS011;47267;48.130;-2.040;2022-12-18T07:23:32;5.30;;;3.60;;
61397;SDS011;47267;48.130;-2.040;2022-12-18T07:26:03;4.50;;;3.72;;
61397;SDS011;47267;48.130;-2.040;2022-12-18T07:28:30;4.47;;;3.45;;
61397;SDS011;47267;48.130;-2.040;2022-12-18T07:30:56;4.05;;;3.17;;
61397;SDS011;47267;48.130;-2.040;2022-12-18T07:33:22;4.88;;;3.50;;
61397;SDS011;47267;48.130;-2.040;2022-12-18T07:35:48;4.55;;;3.38;;
61397;SDS011;47267;48.130;-2.040;2022-12-18T07:38:14;5.32;;;3.17;;
61397;SDS011;47267;48.130;-2.040;2022-12-18T07:40:40;4.57;;;3.47;;
61397;SDS011;47267;48.130;-2.040;2022-12-18T07:43:06;4.95;;;3.38;;
61397;SDS011;47267;48.130;-2.040;2022-12-18T07:45:32;4.85;;;4.05;;
61397;SDS011;47267;48.130;-2.040;2022-12-18T07:47:58;4.15;;;3.35;;
61397;SDS011;47267;48.130;-2.040;2022-12-18T07:50:24;3.88;;;3.08;;
61397;SDS011;47267;48.130;-2.040;2022-12-18T07:52:50;4.68;;;3.58;;
61397;SDS011;47267;48.130;-2.040;2022-12-18T07:55:16;5.75;;;3.63;;
61397;SDS011;47267;48.130;-2.040;2022-12-18T07:57:42;5.47;;;3.28;;
61397;SDS011;47267;48.130;-2.040;2022-12-18T08:00:08;3.78;;;3.10;;
61397;SDS011;47267;48.130;-2.040;2022-12-18T08:02:35;4.45;;;3.05;;
61397;SDS011;47267;48.130;-2.040;2022-12-18T08:05:01;3.90;;;3.20;;
61397;SDS011;47267;48.130;-2.040;2022-12-18T08:07:27;5.03;;;3.55;;
61397;SDS011;47267;48.130;-2.040;2022-12-18T08:09:53;4.28;;;3.15;;
61397;SDS011;47267;48.130;-2.040;2022-12-18T08:12:19;4.28;;;3.30;;
61397;SDS011;47267;48.130;-2.040;2022-12-18T08:14:45;4.22;;;3.42;;
61397;SDS011;47267;48.130;-2.040;2022-12-18T08:17:11;4.57;;;3.33;;
61397;SDS011;47267;48.130;-2.040;2022-12-18T08:19:37;4.40;;;3.28;;
61397;SDS011;47267;48.130;-2.040;2022-12-18T08:22:03;4.60;;;3.60;;
61397;SDS011;47267;48.130;-2.040;2022-12-18T08:24:29;3.90;;;2.90;;
61397;SDS011;47267;48.130;-2.040;2022-12-18T08:26:55;3.72;;;3.10;;
61397;SDS011;47267;48.130;-2.040;2022-12-18T08:29:22;3.88;;;3.03;;
61397;SDS011;47267;48.130;-2.040;2022-12-18T08:31:48;4.55;;;3.58;;
61397;SDS011;47267;48.130;-2.040;2022-12-18T08:34:14;5.53;;;3.88;;
61397;SDS011;47267;48.130;-2.040;2022-12-18T08:36:40;4.32;;;3.33;;
61397;SDS011;47267;48.130;-2.040;2022-12-18T08:39:06;4.43;;;3.60;;
61397;SDS011;47267;48.130;-2.040;2022-12-18T08:41:32;4.20;;;3.40;;
61397;SDS011;47267;48.130;-2.040;2022-12-18T08:43:58;4.47;;;3.58;;
61397;SDS011;47267;48.130;-2.040;2022-12-18T08:46:43;4.22;;;3.40;;
61397;SDS011;47267;48.130;-2.040;2022-12-18T08:49:10;5.03;;;3.78;;
61397;SDS011;47267;48.130;-2.040;2022-12-18T08:51:37;4.72;;;3.17;;
61397;SDS011;47267;48.130;-2.040;2022-12-18T08:54:03;4.78;;;3.47;;
61397;SDS011;47267;48.130;-2.040;2022-12-18T08:56:30;4.53;;;3.60;;
61397;SDS011;47267;48.130;-2.040;2022-12-18T08:58:56;4.10;;;3.45;;
61397;SDS011;47267;48.130;-2.040;2022-12-18T09:01:22;4.63;;;3.60;;
61397;SDS011;47267;48.130;-2.040;2022-12-18T09:03:49;4.10;;;3.28;;
61397;SDS011;47267;48.130;-2.040;2022-12-18T09:06:19;4.15;;;3.25;;
61397;SDS011;47267;48.130;-2.040;2022-12-18T09:08:45;5.45;;;3.92;;
61397;SDS011;47267;48.130;-2.040;2022-12-18T09:11:13;4.55;;;3.67;;
61397;SDS011;47267;48.130;-2.040;2022-12-18T09:13:39;4.55;;;3.38;;
61397;SDS011;47267;48.130;-2.040;2022-12-18T09:16:05;3.65;;;3.25;;
61397;SDS011;47267;48.130;-2.040;2022-12-18T09:18:31;4.95;;;3.60;;
61397;SDS011;47267;48.130;-2.040;2022-12-18T09:20:57;5.63;;;3.72;;
61397;SDS011;47267;48.130;-2.040;2022-12-18T09:23:23;4.88;;;3.25;;
61397;SDS011;47267;48.130;-2.040;2022-12-18T09:25:49;4.60;;;3.53;;
61397;SDS011;47267;48.130;-2.040;2022-12-18T09:28:16;4.03;;;3.38;;
61397;SDS011;47267;48.130;-2.040;2022-12-18T09:30:47;4.90;;;3.60;;
61397;SDS011;47267;48.130;-2.040;2022-12-18T09:33:13;5.50;;;4.00;;
61397;SDS011;47267;48.130;-2.040;2022-12-18T09:35:40;4.72;;;3.78;;
61397;SDS011;47267;48.130;-2.040;2022-12-18T09:38:06;4.82;;;3.25;;
61397;SDS011;47267;48.130;-2.040;2022-12-18T09:40:35;5.03;;;3.63;;
61397;SDS011;47267;48.130;-2.040;2022-12-18T09:43:05;4.38;;;3.30;;
61397;SDS011;47267;48.130;-2.040;2022-12-18T09:45:34;5.07;;;3.95;;
61397;SDS011;47267;48.130;-2.040;2022-12-18T09:48:04;4.10;;;3.30;;
61397;SDS011;47267;48.130;-2.040;2022-12-18T09:50:35;4.93;;;3.60;;
61397;SDS011;47267;48.130;-2.040;2022-12-18T09:53:04;5.90;;;3.65;;
61397;SDS011;47267;48.130;-2.040;2022-12-18T09:55:41;4.93;;;3.72;;
61397;SDS011;47267;48.130;-2.040;2022-12-18T10:00:40;4.78;;;3.72;;
61397;SDS011;47267;48.130;-2.040;2022-12-18T10:03:10;4.32;;;3.22;;
61397;SDS011;47267;48.130;-2.040;2022-12-18T10:10:39;4.78;;;3.55;;
61397;SDS011;47267;48.130;-2.040;2022-12-18T10:13:27;4.05;;;3.35;;
61397;SDS011;47267;48.130;-2.040;2022-12-18T10:20:56;5.63;;;3.65;;
61397;SDS011;47267;48.130;-2.040;2022-12-18T10:23:37;4.32;;;3.58;;
61397;SDS011;47267;48.130;-2.040;2022-12-18T10:26:09;4.72;;;3.53;;
61397;SDS011;47267;48.130;-2.040;2022-12-18T10:28:36;3.97;;;3.30;;
61397;SDS011;47267;48.130;-2.040;2022-12-18T10:31:07;5.03;;;3.65;;
61397;SDS011;47267;48.130;-2.040;2022-12-18T10:33:37;4.00;;;3.50;;
61397;SDS011;47267;48.130;-2.040;2022-12-18T10:36:03;4.25;;;3.53;;
61397;SDS011;47267;48.130;-2.040;2022-12-18T10:38:31;5.03;;;3.75;;
61397;SDS011;47267;48.130;-2.040;2022-12-18T10:41:01;4.60;;;3.47;;
61397;SDS011;47267;48.130;-2.040;2022-12-18T10:43:29;5.13;;;3.90;;
61397;SDS011;47267;48.130;-2.040;2022-12-18T10:48:35;6.53;;;3.53;;
61397;SDS011;47267;48.130;-2.040;2022-12-18T10:51:02;6.25;;;3.95;;
